sensor_id;sensor_type;location;lat;lon;timestamp;P1;durP1;ratioP1;P2;durP2;ratioP2
66585;SDS011;53444;45.822;16.092;2022-10-03T00:01:08;5.07;;;3.55;;
66585;SDS011;53444;45.822;16.092;2022-10-03T00:03:44;6.10;;;3.73;;
66585;SDS011;53444;45.822;16.092;2022-10-03T00:06:21;6.20;;;3.63;;
66585;SDS011;53444;45.822;16.092;2022-10-03T00:09:02;5.30;;;3.33;;
66585;SDS011;53444;45.822;16.092;2022-10-03T00:11:41;5.38;;;3.53;;
66585;SDS011;53444;45.822;16.092;2022-10-03T00:14:22;5.60;;;2.88;;
66585;SDS011;53444;45.822;16.092;2022-10-03T00:16:58;4.07;;;2.97;;
66585;SDS011;53444;45.822;16.092;2022-10-03T00:19:30;4.60;;;2.85;;
66585;SDS011;53444;45.822;16.092;2022-10-03T00:22:07;5.22;;;2.95;;
66585;SDS011;53444;45.822;16.092;2022-10-03T00:24:53;5.90;;;3.03;;
66585;SDS011;53444;45.822;16.092;2022-10-03T00:27:29;4.10;;;3.33;;
66585;SDS011;53444;45.822;16.092;2022-10-03T00:30:04;6.35;;;3.83;;
66585;SDS011;53444;45.822;16.092;2022-10-03T00:32:44;4.65;;;3.10;;
66585;SDS011;53444;45.822;16.092;2022-10-03T00:35:22;6.50;;;3.05;;
66585;SDS011;53444;45.822;16.092;2022-10-03T00:38:06;5.45;;;3.13;;
66585;SDS011;53444;45.822;16.092;2022-10-03T00:40:49;4.43;;;2.95;;
66585;SDS011;53444;45.822;16.092;2022-10-03T00:43:47;4.90;;;3.20;;
66585;SDS011;53444;45.822;16.092;2022-10-03T00:46:54;4.22;;;2.78;;
66585;SDS011;53444;45.822;16.092;2022-10-03T00:50:03;4.53;;;2.90;;
66585;SDS011;53444;45.822;16.092;2022-10-03T00:52:52;5.07;;;3.47;;
66585;SDS011;53444;45.822;16.092;2022-10-03T00:55:44;4.80;;;2.83;;
66585;SDS011;53444;45.822;16.092;2022-10-03T00:58:28;5.80;;;2.90;;
66585;SDS011;53444;45.822;16.092;2022-10-03T01:01:19;5.55;;;3.08;;
66585;SDS011;53444;45.822;16.092;2022-10-03T01:03:51;5.65;;;3.38;;
66585;SDS011;53444;45.822;16.092;2022-10-03T01:06:29;4.55;;;2.97;;
66585;SDS011;53444;45.822;16.092;2022-10-03T01:09:10;5.22;;;3.15;;
66585;SDS011;53444;45.822;16.092;2022-10-03T01:11:51;4.75;;;3.08;;
66585;SDS011;53444;45.822;16.092;2022-10-03T01:14:37;4.88;;;3.22;;
66585;SDS011;53444;45.822;16.092;2022-10-03T01:17:14;4.28;;;3.13;;
66585;SDS011;53444;45.822;16.092;2022-10-03T01:20:01;4.07;;;2.75;;
66585;SDS011;53444;45.822;16.092;2022-10-03T01:22:53;5.85;;;3.25;;
66585;SDS011;53444;45.822;16.092;2022-10-03T01:25:39;4.30;;;3.00;;
66585;SDS011;53444;45.822;16.092;2022-10-03T01:28:19;4.45;;;2.95;;
66585;SDS011;53444;45.822;16.092;2022-10-03T01:31:16;5.28;;;3.35;;
66585;SDS011;53444;45.822;16.092;2022-10-03T01:33:49;5.30;;;3.45;;
66585;SDS011;53444;45.822;16.092;2022-10-03T01:36:27;3.42;;;2.67;;
66585;SDS011;53444;45.822;16.092;2022-10-03T01:38:59;5.55;;;3.38;;
66585;SDS011;53444;45.822;16.092;2022-10-03T01:41:33;5.60;;;3.20;;
66585;SDS011;53444;45.822;16.092;2022-10-03T01:44:14;7.40;;;3.20;;
66585;SDS011;53444;45.822;16.092;2022-10-03T01:46:48;4.25;;;3.20;;
66585;SDS011;53444;45.822;16.092;2022-10-03T01:49:21;4.45;;;2.83;;
66585;SDS011;53444;45.822;16.092;2022-10-03T01:51:54;6.85;;;3.22;;
66585;SDS011;53444;45.822;16.092;2022-10-03T01:54:28;4.55;;;2.95;;
66585;SDS011;53444;45.822;16.092;2022-10-03T01:57:03;4.47;;;3.00;;
66585;SDS011;53444;45.822;16.092;2022-10-03T01:59:42;5.38;;;3.00;;
66585;SDS011;53444;45.822;16.092;2022-10-03T02:02:19;3.85;;;2.90;;
66585;SDS011;53444;45.822;16.092;2022-10-03T02:04:57;5.50;;;3.13;;
66585;SDS011;53444;45.822;16.092;2022-10-03T02:07:29;4.15;;;2.90;;
66585;SDS011;53444;45.822;16.092;2022-10-03T02:10:09;4.35;;;3.25;;
66585;SDS011;53444;45.822;16.092;2022-10-03T02:12:47;3.67;;;2.83;;
66585;SDS011;53444;45.822;16.092;2022-10-03T02:15:23;4.95;;;3.30;;
66585;SDS011;53444;45.822;16.092;2022-10-03T02:17:53;3.95;;;3.00;;
66585;SDS011;53444;45.822;16.092;2022-10-03T02:20:24;4.05;;;2.95;;
66585;SDS011;53444;45.822;16.092;2022-10-03T02:22:59;6.65;;;3.20;;
66585;SDS011;53444;45.822;16.092;2022-10-03T02:25:35;4.00;;;2.97;;
66585;SDS011;53444;45.822;16.092;2022-10-03T02:28:22;5.80;;;3.03;;
66585;SDS011;53444;45.822;16.092;2022-10-03T02:34:16;4.63;;;2.97;;
66585;SDS011;53444;45.822;16.092;2022-10-03T02:37:10;4.13;;;2.90;;
66585;SDS011;53444;45.822;16.092;2022-10-03T02:46:09;6.05;;;3.20;;
66585;SDS011;53444;45.822;16.092;2022-10-03T02:49:03;4.47;;;3.20;;
66585;SDS011;53444;45.822;16.092;2022-10-03T02:54:58;4.97;;;3.42;;
66585;SDS011;53444;45.822;16.092;2022-10-03T03:03:46;5.82;;;3.00;;
66585;SDS011;53444;45.822;16.092;2022-10-03T03:09:24;4.80;;;3.30;;
66585;SDS011;53444;45.822;16.092;2022-10-03T03:12:18;5.40;;;3.33;;
66585;SDS011;53444;45.822;16.092;2022-10-03T03:18:12;6.57;;;3.63;;
66585;SDS011;53444;45.822;16.092;2022-10-03T03:20:53;6.93;;;3.53;;
66585;SDS011;53444;45.822;16.092;2022-10-03T03:23:34;4.78;;;3.40;;
66585;SDS011;53444;45.822;16.092;2022-10-03T03:26:14;5.80;;;3.88;;
66585;SDS011;53444;45.822;16.092;2022-10-03T03:28:56;9.00;;;3.50;;
66585;SDS011;53444;45.822;16.092;2022-10-03T03:31:33;7.07;;;3.67;;
66585;SDS011;53444;45.822;16.092;2022-10-03T03:34:08;4.95;;;3.30;;
66585;SDS011;53444;45.822;16.092;2022-10-03T03:36:41;7.97;;;3.50;;
66585;SDS011;53444;45.822;16.092;2022-10-03T03:39:17;4.60;;;3.30;;
66585;SDS011;53444;45.822;16.092;2022-10-03T03:41:59;4.47;;;3.22;;
66585;SDS011;53444;45.822;16.092;2022-10-03T03:44:43;7.07;;;3.40;;
66585;SDS011;53444;45.822;16.092;2022-10-03T03:47:24;5.68;;;3.60;;
66585;SDS011;53444;45.822;16.092;2022-10-03T03:50:08;4.95;;;3.42;;
66585;SDS011;53444;45.822;16.092;2022-10-03T03:52:56;5.07;;;3.13;;
66585;SDS011;53444;45.822;16.092;2022-10-03T03:55:44;4.47;;;3.47;;
66585;SDS011;53444;45.822;16.092;2022-10-03T03:58:30;4.90;;;3.47;;
66585;SDS011;53444;45.822;16.092;2022-10-03T04:03:58;4.20;;;3.33;;
66585;SDS011;53444;45.822;16.092;2022-10-03T04:06:38;5.68;;;3.63;;
66585;SDS011;53444;45.822;16.092;2022-10-03T04:09:21;7.35;;;3.80;;
66585;SDS011;53444;45.822;16.092;2022-10-03T04:12:06;4.70;;;3.65;;
66585;SDS011;53444;45.822;16.092;2022-10-03T04:14:53;6.38;;;3.47;;
66585;SDS011;53444;45.822;16.092;2022-10-03T04:17:35;4.60;;;3.20;;
66585;SDS011;53444;45.822;16.092;2022-10-03T04:20:41;4.60;;;3.15;;
66585;SDS011;53444;45.822;16.092;2022-10-03T04:23:28;5.40;;;3.78;;
66585;SDS011;53444;45.822;16.092;2022-10-03T04:26:10;5.40;;;3.92;;
66585;SDS011;53444;45.822;16.092;2022-10-03T04:28:56;5.28;;;3.55;;
66585;SDS011;53444;45.822;16.092;2022-10-03T04:31:48;8.57;;;4.47;;
66585;SDS011;53444;45.822;16.092;2022-10-03T04:34:28;6.57;;;4.00;;
66585;SDS011;53444;45.822;16.092;2022-10-03T04:37:07;7.47;;;4.18;;
66585;SDS011;53444;45.822;16.092;2022-10-03T04:39:44;6.18;;;3.85;;
66585;SDS011;53444;45.822;16.092;2022-10-03T04:42:21;6.07;;;3.85;;
66585;SDS011;53444;45.822;16.092;2022-10-03T04:45:00;6.50;;;4.40;;
66585;SDS011;53444;45.822;16.092;2022-10-03T04:47:41;7.22;;;3.92;;
66585;SDS011;53444;45.822;16.092;2022-10-03T04:50:28;7.13;;;3.88;;
66585;SDS011;53444;45.822;16.092;2022-10-03T04:53:05;7.30;;;4.07;;
66585;SDS011;53444;45.822;16.092;2022-10-03T04:55:43;6.97;;;4.22;;
66585;SDS011;53444;45.822;16.092;2022-10-03T04:58:14;6.13;;;4.28;;
66585;SDS011;53444;45.822;16.092;2022-10-03T05:00:59;5.88;;;4.10;;
66585;SDS011;53444;45.822;16.092;2022-10-03T05:03:37;7.68;;;4.10;;
66585;SDS011;53444;45.822;16.092;2022-10-03T05:06:17;6.28;;;3.70;;
66585;SDS011;53444;45.822;16.092;2022-10-03T05:08:56;7.70;;;4.20;;
66585;SDS011;53444;45.822;16.092;2022-10-03T05:11:34;7.63;;;4.55;;
66585;SDS011;53444;45.822;16.092;2022-10-03T05:14:11;7.90;;;4.47;;
66585;SDS011;53444;45.822;16.092;2022-10-03T05:16:49;6.72;;;4.05;;
66585;SDS011;53444;45.822;16.092;2022-10-03T05:19:39;7.43;;;4.38;;
66585;SDS011;53444;45.822;16.092;2022-10-03T05:22:19;5.40;;;3.88;;
66585;SDS011;53444;45.822;16.092;2022-10-03T05:24:55;5.28;;;3.78;;
66585;SDS011;53444;45.822;16.092;2022-10-03T05:27:29;7.20;;;3.80;;
66585;SDS011;53444;45.822;16.092;2022-10-03T05:30:02;7.07;;;4.13;;
66585;SDS011;53444;45.822;16.092;2022-10-03T05:32:37;6.35;;;4.20;;
66585;SDS011;53444;45.822;16.092;2022-10-03T05:35:16;6.53;;;4.40;;
66585;SDS011;53444;45.822;16.092;2022-10-03T05:37:57;6.55;;;4.25;;
66585;SDS011;53444;45.822;16.092;2022-10-03T05:40:46;7.88;;;4.07;;
66585;SDS011;53444;45.822;16.092;2022-10-03T05:43:26;9.90;;;4.28;;
66585;SDS011;53444;45.822;16.092;2022-10-03T05:46:02;8.50;;;4.45;;
66585;SDS011;53444;45.822;16.092;2022-10-03T05:48:40;6.15;;;4.43;;
66585;SDS011;53444;45.822;16.092;2022-10-03T05:51:28;7.40;;;5.22;;
66585;SDS011;53444;45.822;16.092;2022-10-03T05:54:14;5.78;;;4.50;;
66585;SDS011;53444;45.822;16.092;2022-10-03T05:56:58;6.43;;;4.25;;
66585;SDS011;53444;45.822;16.092;2022-10-03T06:05:31;6.03;;;4.68;;
66585;SDS011;53444;45.822;16.092;2022-10-03T06:08:23;7.55;;;4.60;;
66585;SDS011;53444;45.822;16.092;2022-10-03T06:11:11;11.07;;;4.95;;
66585;SDS011;53444;45.822;16.092;2022-10-03T06:13:47;7.85;;;5.13;;
66585;SDS011;53444;45.822;16.092;2022-10-03T06:16:39;8.02;;;4.95;;
66585;SDS011;53444;45.822;16.092;2022-10-03T06:19:22;7.82;;;4.70;;
66585;SDS011;53444;45.822;16.092;2022-10-03T06:22:09;7.15;;;4.13;;
66585;SDS011;53444;45.822;16.092;2022-10-03T06:31:46;5.43;;;3.65;;
66585;SDS011;53444;45.822;16.092;2022-10-03T06:34:57;4.85;;;3.10;;
66585;SDS011;53444;45.822;16.092;2022-10-03T06:44:04;3.22;;;2.30;;
66585;SDS011;53444;45.822;16.092;2022-10-03T06:46:55;4.07;;;2.42;;
66585;SDS011;53444;45.822;16.092;2022-10-03T06:49:42;3.97;;;2.65;;
66585;SDS011;53444;45.822;16.092;2022-10-03T06:52:37;3.30;;;2.30;;
66585;SDS011;53444;45.822;16.092;2022-10-03T06:58:25;3.22;;;2.30;;
66585;SDS011;53444;45.822;16.092;2022-10-03T07:01:23;4.10;;;2.65;;
66585;SDS011;53444;45.822;16.092;2022-10-03T07:04:21;4.30;;;2.75;;
66585;SDS011;53444;45.822;16.092;2022-10-03T07:07:15;4.22;;;2.25;;
66585;SDS011;53444;45.822;16.092;2022-10-03T07:10:11;3.15;;;2.35;;
66585;SDS011;53444;45.822;16.092;2022-10-03T07:12:54;4.10;;;2.88;;
66585;SDS011;53444;45.822;16.092;2022-10-03T07:15:46;5.80;;;3.00;;
66585;SDS011;53444;45.822;16.092;2022-10-03T07:18:32;4.03;;;2.70;;
66585;SDS011;53444;45.822;16.092;2022-10-03T07:21:25;4.63;;;3.17;;
66585;SDS011;53444;45.822;16.092;2022-10-03T07:24:23;4.13;;;2.70;;
66585;SDS011;53444;45.822;16.092;2022-10-03T07:27:23;4.40;;;2.90;;
66585;SDS011;53444;45.822;16.092;2022-10-03T07:30:06;4.15;;;3.13;;
66585;SDS011;53444;45.822;16.092;2022-10-03T07:32:51;4.88;;;3.60;;
66585;SDS011;53444;45.822;16.092;2022-10-03T07:35:50;5.72;;;3.70;;
66585;SDS011;53444;45.822;16.092;2022-10-03T07:38:54;4.97;;;3.28;;
66585;SDS011;53444;45.822;16.092;2022-10-03T07:41:42;4.72;;;3.50;;
66585;SDS011;53444;45.822;16.092;2022-10-03T07:44:28;5.43;;;3.47;;
66585;SDS011;53444;45.822;16.092;2022-10-03T07:53:20;4.57;;;3.30;;
66585;SDS011;53444;45.822;16.092;2022-10-03T07:56:09;5.72;;;3.38;;
66585;SDS011;53444;45.822;16.092;2022-10-03T07:59:00;6.28;;;2.85;;
66585;SDS011;53444;45.822;16.092;2022-10-03T08:01:51;4.38;;;2.85;;
66585;SDS011;53444;45.822;16.092;2022-10-03T08:04:44;4.70;;;3.00;;
66585;SDS011;53444;45.822;16.092;2022-10-03T08:07:37;4.20;;;3.20;;
66585;SDS011;53444;45.822;16.092;2022-10-03T08:10:25;4.32;;;2.63;;
66585;SDS011;53444;45.822;16.092;2022-10-03T08:13:23;4.07;;;2.05;;
66585;SDS011;53444;45.822;16.092;2022-10-03T08:16:02;3.28;;;2.30;;
66585;SDS011;53444;45.822;16.092;2022-10-03T08:21:45;3.70;;;2.60;;
66585;SDS011;53444;45.822;16.092;2022-10-03T08:24:26;3.65;;;2.40;;
66585;SDS011;53444;45.822;16.092;2022-10-03T08:27:20;3.15;;;2.13;;
66585;SDS011;53444;45.822;16.092;2022-10-03T08:30:02;3.15;;;1.90;;
66585;SDS011;53444;45.822;16.092;2022-10-03T08:35:36;3.03;;;1.20;;
66585;SDS011;53444;45.822;16.092;2022-10-03T08:38:33;2.45;;;1.40;;
66585;SDS011;53444;45.822;16.092;2022-10-03T08:53:15;4.22;;;1.75;;
66585;SDS011;53444;45.822;16.092;2022-10-03T08:56:01;2.30;;;1.50;;
66585;SDS011;53444;45.822;16.092;2022-10-03T09:01:44;2.30;;;1.55;;
66585;SDS011;53444;45.822;16.092;2022-10-03T09:17:01;2.17;;;1.20;;
66585;SDS011;53444;45.822;16.092;2022-10-03T09:23:17;1.63;;;1.13;;
66585;SDS011;53444;45.822;16.092;2022-10-03T09:26:18;1.70;;;1.25;;
66585;SDS011;53444;45.822;16.092;2022-10-03T09:29:08;1.75;;;1.33;;
66585;SDS011;53444;45.822;16.092;2022-10-03T09:31:57;3.13;;;1.17;;
66585;SDS011;53444;45.822;16.092;2022-10-03T09:34:47;2.03;;;1.40;;
66585;SDS011;53444;45.822;16.092;2022-10-03T09:37:39;5.38;;;1.55;;
66585;SDS011;53444;45.822;16.092;2022-10-03T09:40:52;2.35;;;1.85;;
66585;SDS011;53444;45.822;16.092;2022-10-03T09:59:20;1.38;;;1.17;;
66585;SDS011;53444;45.822;16.092;2022-10-03T10:02:25;2.92;;;1.48;;
66585;SDS011;53444;45.822;16.092;2022-10-03T10:05:14;1.60;;;1.20;;
66585;SDS011;53444;45.822;16.092;2022-10-03T10:08:09;2.03;;;1.30;;
66585;SDS011;53444;45.822;16.092;2022-10-03T10:11:13;2.00;;;1.38;;
66585;SDS011;53444;45.822;16.092;2022-10-03T10:16:39;2.72;;;1.48;;
66585;SDS011;53444;45.822;16.092;2022-10-03T10:19:35;2.83;;;2.37;;
66585;SDS011;53444;45.822;16.092;2022-10-03T10:22:27;2.55;;;1.30;;
66585;SDS011;53444;45.822;16.092;2022-10-03T10:25:48;1.92;;;1.20;;
66585;SDS011;53444;45.822;16.092;2022-10-03T10:31:46;1.80;;;1.52;;
66585;SDS011;53444;45.822;16.092;2022-10-03T10:34:54;3.50;;;1.20;;
66585;SDS011;53444;45.822;16.092;2022-10-03T10:37:53;1.67;;;0.98;;
66585;SDS011;53444;45.822;16.092;2022-10-03T10:43:37;1.55;;;1.20;;
66585;SDS011;53444;45.822;16.092;2022-10-03T10:52:42;1.70;;;1.00;;
66585;SDS011;53444;45.822;16.092;2022-10-03T10:55:56;1.50;;;1.27;;
66585;SDS011;53444;45.822;16.092;2022-10-03T11:08:36;1.95;;;1.30;;
66585;SDS011;53444;45.822;16.092;2022-10-03T11:11:56;2.03;;;1.17;;
66585;SDS011;53444;45.822;16.092;2022-10-03T11:15:04;1.60;;;1.30;;
66585;SDS011;53444;45.822;16.092;2022-10-03T11:18:06;3.35;;;2.47;;
66585;SDS011;53444;45.822;16.092;2022-10-03T11:24:14;1.67;;;1.10;;
66585;SDS011;53444;45.822;16.092;2022-10-03T11:36:34;1.40;;;1.30;;
66585;SDS011;53444;45.822;16.092;2022-10-03T11:39:24;1.55;;;1.10;;
66585;SDS011;53444;45.822;16.092;2022-10-03T11:41:59;1.40;;;1.30;;
66585;SDS011;53444;45.822;16.092;2022-10-03T11:44:31;1.70;;;1.50;;
66585;SDS011;53444;45.822;16.092;2022-10-03T11:56:09;1.30;;;1.20;;
66585;SDS011;53444;45.822;16.092;2022-10-03T12:04:58;1.40;;;1.20;;
66585;SDS011;53444;45.822;16.092;2022-10-03T12:07:41;1.50;;;1.20;;
66585;SDS011;53444;45.822;16.092;2022-10-03T12:10:34;1.60;;;1.48;;
66585;SDS011;53444;45.822;16.092;2022-10-03T12:13:08;2.83;;;1.25;;
66585;SDS011;53444;45.822;16.092;2022-10-03T12:15:40;2.03;;;1.55;;
66585;SDS011;53444;45.822;16.092;2022-10-03T12:18:10;2.40;;;1.30;;
66585;SDS011;53444;45.822;16.092;2022-10-03T12:21:01;1.95;;;1.50;;
66585;SDS011;53444;45.822;16.092;2022-10-03T12:23:37;1.73;;;1.20;;
66585;SDS011;53444;45.822;16.092;2022-10-03T12:26:21;1.30;;;1.10;;
66585;SDS011;53444;45.822;16.092;2022-10-03T12:28:55;2.55;;;1.45;;
66585;SDS011;53444;45.822;16.092;2022-10-03T12:31:24;1.60;;;1.50;;
66585;SDS011;53444;45.822;16.092;2022-10-03T12:33:57;1.65;;;1.30;;
66585;SDS011;53444;45.822;16.092;2022-10-03T12:36:34;1.58;;;1.17;;
66585;SDS011;53444;45.822;16.092;2022-10-03T12:39:14;1.50;;;1.40;;
66585;SDS011;53444;45.822;16.092;2022-10-03T12:41:55;2.85;;;1.50;;
66585;SDS011;53444;45.822;16.092;2022-10-03T12:44:34;2.37;;;1.33;;
66585;SDS011;53444;45.822;16.092;2022-10-03T12:47:15;1.48;;;1.20;;
66585;SDS011;53444;45.822;16.092;2022-10-03T12:49:52;1.80;;;1.33;;
66585;SDS011;53444;45.822;16.092;2022-10-03T12:52:24;1.70;;;1.08;;
66585;SDS011;53444;45.822;16.092;2022-10-03T12:55:00;1.85;;;1.52;;
66585;SDS011;53444;45.822;16.092;2022-10-03T12:57:46;1.40;;;1.30;;
66585;SDS011;53444;45.822;16.092;2022-10-03T13:00:17;1.17;;;1.00;;
66585;SDS011;53444;45.822;16.092;2022-10-03T13:02:53;1.30;;;1.10;;
66585;SDS011;53444;45.822;16.092;2022-10-03T13:05:39;1.20;;;1.00;;
66585;SDS011;53444;45.822;16.092;2022-10-03T13:08:24;1.63;;;1.13;;
66585;SDS011;53444;45.822;16.092;2022-10-03T13:11:08;1.27;;;0.90;;
66585;SDS011;53444;45.822;16.092;2022-10-03T13:13:51;1.60;;;1.20;;
66585;SDS011;53444;45.822;16.092;2022-10-03T13:16:30;1.52;;;1.30;;
66585;SDS011;53444;45.822;16.092;2022-10-03T13:18:58;2.28;;;1.20;;
66585;SDS011;53444;45.822;16.092;2022-10-03T13:21:43;1.45;;;1.15;;
66585;SDS011;53444;45.822;16.092;2022-10-03T13:24:20;1.57;;;0.80;;
66585;SDS011;53444;45.822;16.092;2022-10-03T13:26:59;1.20;;;1.00;;
66585;SDS011;53444;45.822;16.092;2022-10-03T13:29:35;1.58;;;1.05;;
66585;SDS011;53444;45.822;16.092;2022-10-03T13:32:14;2.03;;;1.23;;
66585;SDS011;53444;45.822;16.092;2022-10-03T13:34:56;2.72;;;1.40;;
66585;SDS011;53444;45.822;16.092;2022-10-03T13:37:58;2.73;;;1.20;;
66585;SDS011;53444;45.822;16.092;2022-10-03T13:40:50;2.47;;;1.35;;
66585;SDS011;53444;45.822;16.092;2022-10-03T13:43:24;2.42;;;1.10;;
66585;SDS011;53444;45.822;16.092;2022-10-03T13:46:03;2.10;;;1.40;;
66585;SDS011;53444;45.822;16.092;2022-10-03T13:48:37;2.65;;;1.38;;
66585;SDS011;53444;45.822;16.092;2022-10-03T13:51:08;2.17;;;1.40;;
66585;SDS011;53444;45.822;16.092;2022-10-03T13:53:51;1.90;;;1.10;;
66585;SDS011;53444;45.822;16.092;2022-10-03T13:56:29;1.55;;;1.08;;
66585;SDS011;53444;45.822;16.092;2022-10-03T13:59:05;1.42;;;1.20;;
66585;SDS011;53444;45.822;16.092;2022-10-03T14:01:43;1.85;;;1.35;;
66585;SDS011;53444;45.822;16.092;2022-10-03T14:07:14;1.42;;;1.10;;
66585;SDS011;53444;45.822;16.092;2022-10-03T14:12:55;1.88;;;1.30;;
66585;SDS011;53444;45.822;16.092;2022-10-03T14:15:38;2.17;;;1.70;;
66585;SDS011;53444;45.822;16.092;2022-10-03T14:18:18;2.57;;;2.03;;
66585;SDS011;53444;45.822;16.092;2022-10-03T14:24:09;1.85;;;1.70;;
66585;SDS011;53444;45.822;16.092;2022-10-03T14:26:46;1.88;;;1.27;;
66585;SDS011;53444;45.822;16.092;2022-10-03T14:29:19;2.60;;;1.50;;
66585;SDS011;53444;45.822;16.092;2022-10-03T14:31:52;2.17;;;1.50;;
66585;SDS011;53444;45.822;16.092;2022-10-03T14:34:33;2.00;;;1.70;;
66585;SDS011;53444;45.822;16.092;2022-10-03T14:37:17;1.95;;;1.50;;
66585;SDS011;53444;45.822;16.092;2022-10-03T14:39:55;2.38;;;1.48;;
66585;SDS011;53444;45.822;16.092;2022-10-03T14:42:37;1.80;;;1.70;;
66585;SDS011;53444;45.822;16.092;2022-10-03T14:45:12;2.40;;;1.57;;
66585;SDS011;53444;45.822;16.092;2022-10-03T14:47:45;1.80;;;1.40;;
66585;SDS011;53444;45.822;16.092;2022-10-03T14:50:16;1.83;;;1.67;;
66585;SDS011;53444;45.822;16.092;2022-10-03T14:52:47;1.90;;;1.48;;
66585;SDS011;53444;45.822;16.092;2022-10-03T14:55:20;3.40;;;1.67;;
66585;SDS011;53444;45.822;16.092;2022-10-03T14:57:50;1.87;;;1.20;;
66585;SDS011;53444;45.822;16.092;2022-10-03T15:00:23;1.90;;;1.40;;
66585;SDS011;53444;45.822;16.092;2022-10-03T15:02:52;2.13;;;1.85;;
66585;SDS011;53444;45.822;16.092;2022-10-03T15:05:21;2.90;;;1.90;;
66585;SDS011;53444;45.822;16.092;2022-10-03T15:07:59;2.90;;;1.95;;
66585;SDS011;53444;45.822;16.092;2022-10-03T15:10:28;2.83;;;1.70;;
66585;SDS011;53444;45.822;16.092;2022-10-03T15:12:57;2.38;;;1.60;;
66585;SDS011;53444;45.822;16.092;2022-10-03T15:15:29;1.85;;;1.63;;
66585;SDS011;53444;45.822;16.092;2022-10-03T15:18:00;1.88;;;1.40;;
66585;SDS011;53444;45.822;16.092;2022-10-03T15:20:31;2.13;;;1.55;;
66585;SDS011;53444;45.822;16.092;2022-10-03T15:23:01;2.17;;;1.97;;
66585;SDS011;53444;45.822;16.092;2022-10-03T15:25:31;1.75;;;1.65;;
66585;SDS011;53444;45.822;16.092;2022-10-03T15:28:03;2.15;;;1.80;;
66585;SDS011;53444;45.822;16.092;2022-10-03T15:30:32;2.05;;;1.55;;
66585;SDS011;53444;45.822;16.092;2022-10-03T15:33:02;2.67;;;1.65;;
66585;SDS011;53444;45.822;16.092;2022-10-03T15:35:37;2.13;;;1.93;;
66585;SDS011;53444;45.822;16.092;2022-10-03T15:38:08;1.88;;;1.60;;
66585;SDS011;53444;45.822;16.092;2022-10-03T15:40:43;3.35;;;1.85;;
66585;SDS011;53444;45.822;16.092;2022-10-03T15:43:25;2.80;;;2.22;;
66585;SDS011;53444;45.822;16.092;2022-10-03T15:45:57;2.42;;;1.85;;
66585;SDS011;53444;45.822;16.092;2022-10-03T15:48:27;2.40;;;2.03;;
66585;SDS011;53444;45.822;16.092;2022-10-03T15:50:56;3.20;;;2.47;;
66585;SDS011;53444;45.822;16.092;2022-10-03T15:53:25;3.88;;;2.70;;
66585;SDS011;53444;45.822;16.092;2022-10-03T15:55:56;2.92;;;2.13;;
66585;SDS011;53444;45.822;16.092;2022-10-03T15:58:31;3.25;;;1.98;;
66585;SDS011;53444;45.822;16.092;2022-10-03T16:01:01;2.77;;;2.27;;
66585;SDS011;53444;45.822;16.092;2022-10-03T16:03:33;2.13;;;1.63;;
66585;SDS011;53444;45.822;16.092;2022-10-03T16:06:09;3.10;;;2.20;;
66585;SDS011;53444;45.822;16.092;2022-10-03T16:08:43;2.67;;;2.17;;
66585;SDS011;53444;45.822;16.092;2022-10-03T16:11:21;2.97;;;2.22;;
66585;SDS011;53444;45.822;16.092;2022-10-03T16:13:54;3.70;;;2.13;;
66585;SDS011;53444;45.822;16.092;2022-10-03T16:16:35;5.82;;;3.42;;
66585;SDS011;53444;45.822;16.092;2022-10-03T16:19:19;5.22;;;3.10;;
66585;SDS011;53444;45.822;16.092;2022-10-03T16:21:55;3.72;;;2.70;;
66585;SDS011;53444;45.822;16.092;2022-10-03T16:24:32;2.38;;;2.00;;
66585;SDS011;53444;45.822;16.092;2022-10-03T16:27:04;2.93;;;2.17;;
66585;SDS011;53444;45.822;16.092;2022-10-03T16:29:36;4.18;;;2.05;;
66585;SDS011;53444;45.822;16.092;2022-10-03T16:32:06;3.40;;;2.30;;
66585;SDS011;53444;45.822;16.092;2022-10-03T16:34:40;3.97;;;2.10;;
66585;SDS011;53444;45.822;16.092;2022-10-03T16:37:15;4.05;;;2.35;;
66585;SDS011;53444;45.822;16.092;2022-10-03T16:39:48;4.07;;;2.17;;
66585;SDS011;53444;45.822;16.092;2022-10-03T16:42:22;5.38;;;2.28;;
66585;SDS011;53444;45.822;16.092;2022-10-03T16:44:51;4.50;;;2.72;;
66585;SDS011;53444;45.822;16.092;2022-10-03T16:47:26;3.78;;;2.40;;
66585;SDS011;53444;45.822;16.092;2022-10-03T16:49:55;4.18;;;2.60;;
66585;SDS011;53444;45.822;16.092;2022-10-03T16:52:43;6.37;;;2.90;;
66585;SDS011;53444;45.822;16.092;2022-10-03T16:55:14;4.82;;;2.65;;
66585;SDS011;53444;45.822;16.092;2022-10-03T16:57:43;3.53;;;2.50;;
66585;SDS011;53444;45.822;16.092;2022-10-03T17:00:15;5.97;;;3.47;;
66585;SDS011;53444;45.822;16.092;2022-10-03T17:02:46;4.40;;;2.78;;
66585;SDS011;53444;45.822;16.092;2022-10-03T17:05:13;7.20;;;2.90;;
66585;SDS011;53444;45.822;16.092;2022-10-03T17:07:43;6.00;;;2.72;;
66585;SDS011;53444;45.822;16.092;2022-10-03T17:10:31;3.78;;;2.42;;
66585;SDS011;53444;45.822;16.092;2022-10-03T17:13:02;7.75;;;3.67;;
66585;SDS011;53444;45.822;16.092;2022-10-03T17:15:37;7.65;;;2.78;;
66585;SDS011;53444;45.822;16.092;2022-10-03T17:18:18;8.83;;;4.30;;
66585;SDS011;53444;45.822;16.092;2022-10-03T17:20:49;5.93;;;3.40;;
66585;SDS011;53444;45.822;16.092;2022-10-03T17:23:27;5.97;;;2.70;;
66585;SDS011;53444;45.822;16.092;2022-10-03T17:26:01;5.07;;;2.88;;
66585;SDS011;53444;45.822;16.092;2022-10-03T17:28:33;7.40;;;4.07;;
66585;SDS011;53444;45.822;16.092;2022-10-03T17:31:04;6.70;;;4.90;;
66585;SDS011;53444;45.822;16.092;2022-10-03T17:33:39;10.05;;;5.70;;
66585;SDS011;53444;45.822;16.092;2022-10-03T17:36:20;8.18;;;4.90;;
66585;SDS011;53444;45.822;16.092;2022-10-03T17:39:05;6.28;;;3.85;;
66585;SDS011;53444;45.822;16.092;2022-10-03T17:41:40;4.93;;;3.10;;
66585;SDS011;53444;45.822;16.092;2022-10-03T17:44:17;6.03;;;3.63;;
66585;SDS011;53444;45.822;16.092;2022-10-03T17:46:54;7.65;;;4.07;;
66585;SDS011;53444;45.822;16.092;2022-10-03T17:49:27;9.13;;;5.07;;
66585;SDS011;53444;45.822;16.092;2022-10-03T17:52:09;6.35;;;3.85;;
66585;SDS011;53444;45.822;16.092;2022-10-03T17:54:40;6.78;;;3.47;;
66585;SDS011;53444;45.822;16.092;2022-10-03T17:57:12;6.83;;;3.73;;
66585;SDS011;53444;45.822;16.092;2022-10-03T17:59:44;6.97;;;3.85;;
66585;SDS011;53444;45.822;16.092;2022-10-03T18:02:18;8.00;;;4.57;;
66585;SDS011;53444;45.822;16.092;2022-10-03T18:04:48;10.23;;;4.70;;
66585;SDS011;53444;45.822;16.092;2022-10-03T18:07:24;9.80;;;4.82;;
66585;SDS011;53444;45.822;16.092;2022-10-03T18:09:54;10.20;;;4.77;;
66585;SDS011;53444;45.822;16.092;2022-10-03T18:12:22;8.32;;;4.88;;
66585;SDS011;53444;45.822;16.092;2022-10-03T18:15:04;9.30;;;5.55;;
66585;SDS011;53444;45.822;16.092;2022-10-03T18:17:49;8.57;;;6.15;;
66585;SDS011;53444;45.822;16.092;2022-10-03T18:20:33;11.65;;;8.07;;
66585;SDS011;53444;45.822;16.092;2022-10-03T18:23:09;8.47;;;5.60;;
66585;SDS011;53444;45.822;16.092;2022-10-03T18:25:49;7.53;;;4.63;;
66585;SDS011;53444;45.822;16.092;2022-10-03T18:28:23;8.32;;;4.82;;
66585;SDS011;53444;45.822;16.092;2022-10-03T18:30:54;6.88;;;4.25;;
66585;SDS011;53444;45.822;16.092;2022-10-03T18:33:25;7.65;;;4.20;;
66585;SDS011;53444;45.822;16.092;2022-10-03T18:35:56;6.67;;;3.80;;
66585;SDS011;53444;45.822;16.092;2022-10-03T18:38:27;7.57;;;3.90;;
66585;SDS011;53444;45.822;16.092;2022-10-03T18:41:00;8.82;;;4.75;;
66585;SDS011;53444;45.822;16.092;2022-10-03T18:43:32;7.10;;;4.13;;
66585;SDS011;53444;45.822;16.092;2022-10-03T18:46:04;11.45;;;5.53;;